createdAt,value
2023-04-25T00:01:52.365Z,59.87
2023-04-25T00:04:19.298Z,59.74
2023-04-25T00:06:45.963Z,60.20
2023-04-25T00:09:12.539Z,60.01
2023-04-25T00:11:39.044Z,60.36
2023-04-25T00:14:05.627Z,61.00
2023-04-25T00:16:34.739Z,60.70
2023-04-25T00:19:02.550Z,61.02
2023-04-25T00:21:29.268Z,61.01
2023-04-25T00:23:56.458Z,61.48
2023-04-25T00:26:22.936Z,61.60
2023-04-25T00:28:49.443Z,61.52
2023-04-25T00:31:15.889Z,62.00
2023-04-25T00:33:42.314Z,62.10
2023-04-25T00:36:08.747Z,61.81
2023-04-25T00:38:35.592Z,62.34
2023-04-25T00:41:01.938Z,62.43
2023-04-25T00:43:33.231Z,62.52
2023-04-25T00:46:01.352Z,62.66
2023-04-25T00:48:28.084Z,62.82
2023-04-25T00:50:56.326Z,62.55
2023-04-25T00:53:23.233Z,62.78
2023-04-25T00:55:53.769Z,62.89
2023-04-25T00:58:22.302Z,63.20
2023-04-25T01:00:51.154Z,63.31
2023-04-25T01:03:20.697Z,63.46
2023-04-25T01:05:47.934Z,63.18
2023-04-25T01:08:14.921Z,63.46
2023-04-25T01:10:41.338Z,63.28
2023-04-25T01:13:08.130Z,63.36
2023-04-25T01:15:36.337Z,63.63
2023-04-25T01:18:03.724Z,63.75
2023-04-25T01:20:30.400Z,63.54
2023-04-25T01:22:56.838Z,63.90
2023-04-25T01:25:24.919Z,63.65
2023-04-25T01:27:51.824Z,63.94
2023-04-25T01:30:18.735Z,63.92
2023-04-25T01:32:45.511Z,63.62
2023-04-25T01:35:12.939Z,63.65
2023-04-25T01:37:41.026Z,63.82
2023-04-25T01:40:08.790Z,64.06
2023-04-25T01:42:36.741Z,63.95
2023-04-25T01:45:03.580Z,64.05
2023-04-25T01:47:31.817Z,64.42
2023-04-25T01:49:59.437Z,64.12
2023-04-25T01:52:25.797Z,63.90
2023-04-25T01:54:54.286Z,64.32
2023-04-25T01:57:20.864Z,64.35
2023-04-25T01:59:47.430Z,64.60
2023-04-25T02:02:13.840Z,64.20
2023-04-25T02:04:40.378Z,64.02
2023-04-25T02:07:06.863Z,64.15
2023-04-25T02:09:33.248Z,63.86
2023-04-25T02:11:59.560Z,63.70
2023-04-25T02:14:26.024Z,63.76
2023-04-25T02:16:53.195Z,63.66
2023-04-25T02:19:19.727Z,63.65
2023-04-25T02:21:46.521Z,63.94
2023-04-25T02:24:12.957Z,63.74
2023-04-25T02:26:39.304Z,63.96
2023-04-25T02:29:05.755Z,64.07
2023-04-25T02:31:32.281Z,63.94
2023-04-25T02:33:58.818Z,63.94
2023-04-25T02:36:25.187Z,64.27
2023-04-25T02:38:51.808Z,64.40
2023-04-25T02:41:18.375Z,64.40
2023-04-25T02:43:44.695Z,64.47
2023-04-25T02:46:11.232Z,64.18
2023-04-25T02:48:37.600Z,64.14
2023-04-25T02:51:04.005Z,64.12
2023-04-25T02:53:30.524Z,64.17
2023-04-25T02:55:59.290Z,64.26
2023-04-25T02:58:26.089Z,64.53
2023-04-25T03:00:52.606Z,64.10
2023-04-25T03:03:19.275Z,64.07
2023-04-25T03:05:47.706Z,63.92
2023-04-25T03:08:14.143Z,64.30
2023-04-25T03:10:40.636Z,64.12
2023-04-25T03:13:06.949Z,64.35
2023-04-25T03:15:33.376Z,64.05
2023-04-25T03:17:59.789Z,64.06
2023-04-25T03:20:26.133Z,64.16
2023-04-25T03:22:52.630Z,63.89
2023-04-25T03:25:19.023Z,63.96
2023-04-25T03:27:45.370Z,64.10
2023-04-25T03:30:12.109Z,64.09
2023-04-25T03:32:38.549Z,64.10
2023-04-25T03:35:06.249Z,63.85
2023-04-25T03:37:32.606Z,63.63
2023-04-25T03:39:58.926Z,64.01
2023-04-25T03:42:25.524Z,63.70
2023-04-25T03:44:52.633Z,63.73
2023-04-25T03:47:19.011Z,64.22
2023-04-25T03:49:45.559Z,63.67
2023-04-25T03:52:11.929Z,64.02
2023-04-25T03:54:38.334Z,63.56
2023-04-25T03:57:04.689Z,63.39
2023-04-25T03:59:31.397Z,63.31
2023-04-25T04:01:58.133Z,63.60
2023-04-25T04:04:24.677Z,63.26
2023-04-25T04:06:51.814Z,63.56
2023-04-25T04:09:18.785Z,63.41
2023-04-25T04:11:45.234Z,63.47
2023-04-25T04:14:11.732Z,63.28
2023-04-25T04:16:38.254Z,63.54
2023-04-25T04:19:04.921Z,63.41
2023-04-25T04:21:31.282Z,62.90
2023-04-25T04:23:58.777Z,63.32
2023-04-25T04:26:25.178Z,63.21
2023-04-25T04:28:52.710Z,62.98
2023-04-25T04:31:20.531Z,62.95
2023-04-25T04:33:47.394Z,63.11
2023-04-25T04:36:13.933Z,62.71
2023-04-25T04:38:42.167Z,62.84
2023-04-25T04:41:08.909Z,62.79
2023-04-25T04:43:35.279Z,62.77
2023-04-25T04:46:02.182Z,62.95
2023-04-25T04:48:29.137Z,62.44
2023-04-25T04:50:55.655Z,62.66
2023-04-25T04:53:22.111Z,62.40
2023-04-25T04:55:48.504Z,62.60
2023-04-25T04:58:15.638Z,62.54
2023-04-25T05:00:43.042Z,62.75
2023-04-25T05:03:09.507Z,62.58
2023-04-25T05:05:36.160Z,62.34
2023-04-25T05:08:02.787Z,62.53
2023-04-25T05:10:29.158Z,62.46
2023-04-25T05:12:55.616Z,62.66
2023-04-25T05:15:21.956Z,62.18
2023-04-25T05:17:48.358Z,62.37
2023-04-25T05:20:15.098Z,62.18
2023-04-25T05:22:42.763Z,62.42
2023-04-25T05:25:10.380Z,62.35
2023-04-25T05:27:36.721Z,62.15
2023-04-25T05:30:03.454Z,61.95
2023-04-25T05:32:29.925Z,61.96
2023-04-25T05:34:56.562Z,61.85
2023-04-25T05:37:22.975Z,61.59
2023-04-25T05:39:49.290Z,61.84
2023-04-25T05:42:15.638Z,61.82
2023-04-25T05:44:42.179Z,61.77
2023-04-25T05:47:08.498Z,61.96
2023-04-25T05:49:35.499Z,61.46
2023-04-25T05:52:01.844Z,61.34
2023-04-25T05:54:28.221Z,61.12
2023-04-25T05:56:54.573Z,60.99
2023-04-25T05:59:21.148Z,60.53
2023-04-25T06:01:48.109Z,60.64
2023-04-25T06:04:14.793Z,60.08
2023-04-25T06:06:41.280Z,60.05
2023-04-25T06:09:07.825Z,60.10
2023-04-25T06:11:34.199Z,59.63
2023-04-25T06:14:00.557Z,59.24
2023-04-25T06:16:27.179Z,59.25
2023-04-25T06:18:53.793Z,59.63
2023-04-25T06:21:20.248Z,58.78
2023-04-25T06:23:46.708Z,58.76
2023-04-25T06:26:13.205Z,58.93
2023-04-25T06:28:39.674Z,59.08
2023-04-25T06:31:06.023Z,59.68
2023-04-25T06:33:32.436Z,59.15
2023-04-25T06:35:58.877Z,58.72
2023-04-25T06:38:25.221Z,58.77
2023-04-25T06:40:52.211Z,58.64
2023-04-25T06:43:18.583Z,57.92
2023-04-25T06:45:48.231Z,58.27
2023-04-25T06:48:14.867Z,58.11
2023-04-25T06:50:41.200Z,57.93
2023-04-25T06:53:09.790Z,57.34
2023-04-25T06:55:36.359Z,56.93
2023-04-25T06:58:02.687Z,56.86
2023-04-25T07:00:29.790Z,56.60
2023-04-25T07:02:56.268Z,56.55
2023-04-25T07:05:22.919Z,56.13
2023-04-25T07:07:49.421Z,56.09
2023-04-25T07:10:16.226Z,56.01
2023-04-25T07:12:42.576Z,55.07
2023-04-25T07:15:11.026Z,55.29
2023-04-25T07:17:37.480Z,54.92
2023-04-25T07:20:04.874Z,55.49
2023-04-25T07:22:31.211Z,55.34
2023-04-25T07:24:57.539Z,54.13
2023-04-25T07:27:23.982Z,53.02
2023-04-25T07:29:50.332Z,53.24
2023-04-25T07:32:16.702Z,52.67
2023-04-25T07:34:43.196Z,52.92
2023-04-25T07:37:09.517Z,52.02
2023-04-25T07:39:36.030Z,51.68
2023-04-25T07:42:03.516Z,51.40
2023-04-25T07:44:31.322Z,51.37
2023-04-25T07:46:57.687Z,51.12
2023-04-25T07:49:24.154Z,50.78
2023-04-25T07:51:50.858Z,50.06
2023-04-25T07:54:18.070Z,50.16
2023-04-25T07:56:52.269Z,49.89
2023-04-25T07:59:19.553Z,49.50
2023-04-25T08:01:45.975Z,49.20
2023-04-25T08:04:12.665Z,49.31
2023-04-25T08:06:39.382Z,50.20
2023-04-25T08:09:05.923Z,50.13
2023-04-25T08:11:32.348Z,50.17
2023-04-25T08:13:58.884Z,49.47
2023-04-25T08:16:25.435Z,49.78
2023-04-25T08:18:52.324Z,49.99
2023-04-25T08:21:19.091Z,49.84
2023-04-25T08:23:45.856Z,49.98
2023-04-25T08:26:12.382Z,49.23
2023-04-25T08:28:39.251Z,49.33
2023-04-25T08:31:05.841Z,49.30
2023-04-25T08:33:33.703Z,49.03
2023-04-25T08:36:00.174Z,48.16
2023-04-25T08:38:26.777Z,48.32
2023-04-25T08:40:53.221Z,47.91
2023-04-25T08:43:20.985Z,48.18
2023-04-25T08:45:48.257Z,47.83
2023-04-25T08:48:16.808Z,47.30
2023-04-25T08:50:54.298Z,46.78
2023-04-25T08:53:28.454Z,46.35
2023-04-25T08:55:57.143Z,46.50
2023-04-25T08:58:24.436Z,46.80
2023-04-25T09:00:52.997Z,46.79
2023-04-25T09:03:19.920Z,46.29
2023-04-25T09:05:46.940Z,46.14
2023-04-25T09:08:13.782Z,45.75
2023-04-25T09:10:41.449Z,46.45
2023-04-25T09:13:07.901Z,46.85
2023-04-25T09:15:34.352Z,47.22
2023-04-25T09:18:01.180Z,46.54
2023-04-25T09:20:27.756Z,45.73
2023-04-25T09:23:07.746Z,46.15
2023-04-25T09:25:41.504Z,46.14
2023-04-25T09:28:07.911Z,45.42
2023-04-25T09:30:37.508Z,45.89
2023-04-25T09:33:08.617Z,46.70
2023-04-25T09:35:41.027Z,47.34
2023-04-25T09:38:13.140Z,47.29
2023-04-25T09:40:46.446Z,45.61
2023-04-25T09:43:23.649Z,45.03
2023-04-25T09:45:52.668Z,43.21
2023-04-25T09:48:21.060Z,42.43
2023-04-25T09:51:05.108Z,42.56
2023-04-25T09:53:33.013Z,41.82
2023-04-25T09:56:03.940Z,41.91
2023-04-25T09:58:32.378Z,41.70
2023-04-25T10:01:01.990Z,41.92
2023-04-25T10:03:31.833Z,42.36
2023-04-25T10:06:01.284Z,42.31
2023-04-25T10:08:34.149Z,42.72
2023-04-25T10:11:03.650Z,41.02
2023-04-25T10:13:31.874Z,40.40
2023-04-25T10:16:05.405Z,40.81
2023-04-25T10:18:33.472Z,40.44
2023-04-25T10:21:02.749Z,40.89
2023-04-25T10:23:31.407Z,41.06
2023-04-25T10:25:58.572Z,40.98
2023-04-25T10:28:25.258Z,40.60
2023-04-25T10:31:04.947Z,42.36
2023-04-25T10:33:39.262Z,41.74
2023-04-25T10:36:13.713Z,42.21
2023-04-25T10:38:40.640Z,41.59
2023-04-25T10:41:11.732Z,41.45
2023-04-25T10:43:45.467Z,41.81
2023-04-25T10:46:19.259Z,41.16
2023-04-25T10:48:59.099Z,42.41
2023-04-25T10:51:51.678Z,40.85
2023-04-25T10:54:24.077Z,40.07
2023-04-25T10:56:51.785Z,39.44
2023-04-25T10:59:19.757Z,40.00
2023-04-25T11:01:56.775Z,40.64
2023-04-25T11:04:26.850Z,40.71
2023-04-25T11:07:06.548Z,40.17
2023-04-25T11:09:35.957Z,38.83
2023-04-25T11:12:02.476Z,38.69
2023-04-25T11:14:28.972Z,39.37
2023-04-25T11:17:00.748Z,39.28
2023-04-25T11:19:28.742Z,39.91
2023-04-25T11:21:59.810Z,40.15
2023-04-25T11:24:28.360Z,40.78
2023-04-25T11:26:55.103Z,40.82
2023-04-25T11:29:27.343Z,41.53
2023-04-25T11:31:56.859Z,41.49
2023-04-25T11:34:23.276Z,41.49
2023-04-25T11:36:49.711Z,41.39
2023-04-25T11:39:16.161Z,41.92
2023-04-25T11:41:45.842Z,41.32
2023-04-25T11:44:12.835Z,41.46
2023-04-25T11:46:39.249Z,41.40
2023-04-25T11:49:05.892Z,41.80
2023-04-25T11:51:46.077Z,41.68
2023-04-25T11:54:13.095Z,41.05
2023-04-25T11:56:43.795Z,42.01
2023-04-25T11:59:10.570Z,41.17
2023-04-25T12:01:39.476Z,40.91
2023-04-25T12:04:14.535Z,40.50
2023-04-25T12:06:43.926Z,39.72
2023-04-25T12:09:14.198Z,39.20
2023-04-25T12:11:47.112Z,38.92
2023-04-25T12:14:21.853Z,40.29
2023-04-25T12:16:49.515Z,40.83
2023-04-25T12:19:21.142Z,41.88
2023-04-25T12:24:24.350Z,42.32
2023-04-25T12:26:59.910Z,42.86
2023-04-25T12:29:31.775Z,42.61
2023-04-25T12:32:04.826Z,42.82
2023-04-25T12:34:33.293Z,42.77
2023-04-25T12:36:59.771Z,42.85
2023-04-25T12:39:26.803Z,42.35
2023-04-25T12:41:57.127Z,42.86
2023-04-25T12:44:23.532Z,43.00
2023-04-25T12:46:50.992Z,42.47
2023-04-25T12:49:19.167Z,42.75
2023-04-25T12:51:46.016Z,42.48
2023-04-25T12:54:12.659Z,42.37
2023-04-25T12:56:39.352Z,42.05
2023-04-25T12:59:05.912Z,43.03
2023-04-25T13:01:34.697Z,42.64
2023-04-25T13:04:02.896Z,42.01
2023-04-25T13:06:31.102Z,41.99
2023-04-25T13:08:57.538Z,41.52
2023-04-25T13:11:23.881Z,41.43
2023-04-25T13:13:50.610Z,41.25
2023-04-25T13:16:17.490Z,41.07
2023-04-25T13:18:43.995Z,41.26
2023-04-25T13:21:12.403Z,41.12
2023-04-25T13:23:39.158Z,41.24
2023-04-25T13:26:05.805Z,40.40
2023-04-25T13:28:32.289Z,40.73
2023-04-25T13:30:59.004Z,41.24
2023-04-25T13:33:25.565Z,41.66
2023-04-25T13:35:54.705Z,41.37
2023-04-25T13:38:22.431Z,41.56
2023-04-25T13:40:49.596Z,41.31
2023-04-25T13:43:16.127Z,41.28
2023-04-25T13:45:42.519Z,41.84
2023-04-25T13:48:09.019Z,41.70
2023-04-25T13:50:36.777Z,42.33
2023-04-25T13:53:03.187Z,42.38
2023-04-25T13:55:29.624Z,41.91
2023-04-25T13:57:56.041Z,42.03
2023-04-25T14:00:22.585Z,42.20
2023-04-25T14:02:50.741Z,42.51
2023-04-25T14:05:17.502Z,42.60
2023-04-25T14:07:43.953Z,42.41
2023-04-25T14:10:10.579Z,41.55
2023-04-25T14:12:37.053Z,40.84
2023-04-25T14:15:04.399Z,40.45
2023-04-25T14:17:30.896Z,40.18
2023-04-25T14:19:57.323Z,40.40
2023-04-25T14:22:23.873Z,41.49
2023-04-25T14:24:50.302Z,42.23
2023-04-25T14:27:16.730Z,42.44
2023-04-25T14:29:43.953Z,42.83
2023-04-25T14:32:11.260Z,43.61
2023-04-25T14:34:37.615Z,43.37
2023-04-25T14:37:04.239Z,44.51
2023-04-25T14:39:30.574Z,44.72
2023-04-25T14:41:57.008Z,45.77
2023-04-25T14:44:23.428Z,45.99
2023-04-25T14:46:52.524Z,46.02
2023-04-25T14:49:19.149Z,46.03
2023-04-25T14:51:45.599Z,45.75
2023-04-25T14:54:12.966Z,45.75
2023-04-25T14:56:39.408Z,45.01
2023-04-25T14:59:05.733Z,44.97
2023-04-25T15:01:32.723Z,45.33
2023-04-25T15:03:59.768Z,45.00
2023-04-25T15:06:27.998Z,44.71
2023-04-25T15:08:54.437Z,45.31
2023-04-25T15:11:21.507Z,45.20
2023-04-25T15:13:47.938Z,45.55
2023-04-25T15:16:14.466Z,45.47
2023-04-25T15:18:41.638Z,46.08
2023-04-25T15:21:08.251Z,45.99
2023-04-25T15:23:34.766Z,46.21
2023-04-25T15:26:01.123Z,46.20
2023-04-25T15:28:27.553Z,46.06
2023-04-25T15:30:54.394Z,46.28
2023-04-25T15:33:20.829Z,46.09
2023-04-25T15:35:47.396Z,45.83
2023-04-25T15:38:13.815Z,45.74
2023-04-25T15:40:41.035Z,46.28
2023-04-25T15:43:08.130Z,47.96
2023-04-25T15:58:00.701Z,47.78
2023-04-25T16:00:27.424Z,48.26
2023-04-25T16:02:54.038Z,47.97
2023-04-25T16:05:20.848Z,47.38
2023-04-25T16:07:47.832Z,47.16
2023-04-25T16:10:19.759Z,46.90
2023-04-25T16:12:48.290Z,46.78
2023-04-25T16:15:14.716Z,46.61
2023-04-25T16:17:41.343Z,46.46
2023-04-25T16:20:12.459Z,46.16
2023-04-25T16:22:40.232Z,46.68
2023-04-25T16:25:07.996Z,46.55
2023-04-25T16:27:35.459Z,46.46
2023-04-25T16:30:02.331Z,45.02
2023-04-25T16:32:28.804Z,44.97
2023-04-25T16:34:56.993Z,44.79
2023-04-25T16:37:25.453Z,44.35
2023-04-25T16:39:51.773Z,44.51
2023-04-25T16:42:18.212Z,44.42
2023-04-25T16:44:44.693Z,44.23
2023-04-25T16:47:12.206Z,43.31
2023-04-25T16:49:41.078Z,42.93
2023-04-25T16:52:07.426Z,42.96
2023-04-25T16:54:33.802Z,43.21
2023-04-25T16:57:01.308Z,43.21
2023-04-25T16:59:27.728Z,43.29
2023-04-25T17:01:54.105Z,43.63
2023-04-25T17:04:20.511Z,43.86
2023-04-25T17:06:46.955Z,44.72
2023-04-25T17:09:13.282Z,45.51
2023-04-25T17:11:39.824Z,46.25
2023-04-25T17:14:06.389Z,47.94
2023-04-25T17:16:37.186Z,48.51
2023-04-25T17:19:05.491Z,49.46
2023-04-25T17:21:32.175Z,50.46
2023-04-25T17:23:59.213Z,50.90
2023-04-25T17:26:26.510Z,52.24
2023-04-25T17:28:54.013Z,52.71
2023-04-25T17:31:22.952Z,53.78
2023-04-25T17:33:49.851Z,55.25
2023-04-25T17:36:16.269Z,55.23
2023-04-25T17:38:42.608Z,55.72
2023-04-25T17:41:10.559Z,56.27
2023-04-25T17:43:36.965Z,53.95
2023-04-25T17:46:03.424Z,54.72
2023-04-25T17:48:31.584Z,53.59
2023-04-25T17:50:58.485Z,52.30
2023-04-25T17:53:25.319Z,52.14
2023-04-25T17:55:51.843Z,51.53
2023-04-25T17:58:18.289Z,50.82
2023-04-25T18:00:44.681Z,50.59
2023-04-25T18:03:11.299Z,50.57
2023-04-25T18:05:37.777Z,50.65
2023-04-25T18:08:05.918Z,50.34
2023-04-25T18:10:33.874Z,50.39
2023-04-25T18:13:00.469Z,50.53
2023-04-25T18:15:27.017Z,51.17
2023-04-25T18:17:53.495Z,51.63
2023-04-25T18:20:20.584Z,51.33
2023-04-25T18:22:47.042Z,51.78
2023-04-25T18:25:13.965Z,51.21
2023-04-25T18:27:41.237Z,51.27
2023-04-25T18:30:10.575Z,50.98
2023-04-25T18:32:37.773Z,50.30
2023-04-25T18:35:04.952Z,50.20
2023-04-25T18:37:31.345Z,49.82
2023-04-25T18:39:58.471Z,50.48
2023-04-25T18:42:24.995Z,51.05
2023-04-25T18:44:51.600Z,51.98
2023-04-25T18:47:18.257Z,52.47
2023-04-25T18:49:45.253Z,52.14
2023-04-25T18:52:12.770Z,53.50
2023-04-25T18:54:39.250Z,53.13
2023-04-25T18:57:06.420Z,53.02
2023-04-25T18:59:33.565Z,53.27
2023-04-25T19:02:05.297Z,52.99
2023-04-25T19:04:32.263Z,52.94
2023-04-25T19:06:58.988Z,52.41
2023-04-25T19:09:25.579Z,52.61
2023-04-25T19:11:52.095Z,52.49
2023-04-25T19:14:18.579Z,52.40
2023-04-25T19:16:45.015Z,52.82
2023-04-25T19:19:11.395Z,52.04
2023-04-25T19:21:37.861Z,52.04
2023-04-25T19:24:05.211Z,52.49
2023-04-25T19:26:32.226Z,52.59
2023-04-25T19:29:13.450Z,52.62
2023-04-25T19:31:41.335Z,52.51
2023-04-25T19:34:09.031Z,52.30
2023-04-25T19:36:38.378Z,52.11
2023-04-25T19:39:07.084Z,52.14
2023-04-25T19:41:38.215Z,52.55
2023-04-25T19:44:07.267Z,52.27
2023-04-25T19:46:35.121Z,52.56
2023-04-25T19:49:01.891Z,52.71
2023-04-25T19:51:28.770Z,53.42
2023-04-25T19:53:55.566Z,52.65
2023-04-25T19:56:22.764Z,52.83
2023-04-25T19:58:49.456Z,53.25
2023-04-25T20:01:17.035Z,53.45
2023-04-25T20:03:43.498Z,53.10
2023-04-25T20:06:11.398Z,53.75
2023-04-25T20:08:37.803Z,53.60
2023-04-25T20:11:04.242Z,54.09
2023-04-25T20:13:31.582Z,53.79
2023-04-25T20:16:00.033Z,53.90
2023-04-25T20:18:29.127Z,53.68
2023-04-25T20:20:55.543Z,53.90
2023-04-25T20:23:22.103Z,54.16
2023-04-25T20:25:48.509Z,53.89
2023-04-25T20:28:14.977Z,53.80
2023-04-25T20:30:41.733Z,53.58
2023-04-25T20:33:09.119Z,53.18
2023-04-25T20:35:35.530Z,53.58
2023-04-25T20:38:01.895Z,53.67
2023-04-25T20:40:28.268Z,53.66
2023-04-25T20:42:56.172Z,53.53
2023-04-25T20:45:24.295Z,53.32
2023-04-25T20:47:50.751Z,53.68
2023-04-25T20:50:17.242Z,54.07
2023-04-25T20:52:44.604Z,53.97
2023-04-25T20:55:11.910Z,54.34
2023-04-25T20:57:38.314Z,54.59
2023-04-25T21:00:25.321Z,55.09
2023-04-25T21:02:52.698Z,54.95
2023-04-25T21:05:22.077Z,54.46
2023-04-25T21:07:49.922Z,55.02
2023-04-25T21:10:17.154Z,55.16
2023-04-25T21:12:50.140Z,55.65
2023-04-25T21:15:21.184Z,55.71
2023-04-25T21:17:48.564Z,55.70
2023-04-25T21:20:17.759Z,55.83
2023-04-25T21:22:53.774Z,56.42
2023-04-25T21:25:31.009Z,56.17
2023-04-25T21:27:58.719Z,56.01
2023-04-25T21:30:26.064Z,55.94
2023-04-25T21:32:53.152Z,56.10
2023-04-25T21:35:21.202Z,56.13
2023-04-25T21:37:47.708Z,56.15
2023-04-25T21:40:14.683Z,56.73
2023-04-25T21:42:42.262Z,56.27
2023-04-25T21:45:09.026Z,56.68
2023-04-25T21:47:35.852Z,56.28
2023-04-25T21:50:02.256Z,56.60
2023-04-25T21:52:28.760Z,56.72
2023-04-25T21:54:55.775Z,56.44
2023-04-25T21:57:22.194Z,56.68
2023-04-25T21:59:48.595Z,56.74
2023-04-25T22:02:15.199Z,56.37
2023-04-25T22:04:47.137Z,56.54
2023-04-25T22:07:14.326Z,56.63
2023-04-25T22:09:53.710Z,56.68
2023-04-25T22:12:21.150Z,56.78
2023-04-25T22:14:47.681Z,56.85
2023-04-25T22:17:14.018Z,57.39
2023-04-25T22:19:40.407Z,57.06
2023-04-25T22:22:06.750Z,57.39
2023-04-25T22:24:33.718Z,57.92
2023-04-25T22:27:00.380Z,58.03
2023-04-25T22:29:26.698Z,57.92
2023-04-25T22:31:53.108Z,57.63
2023-04-25T22:34:19.865Z,57.52
2023-04-25T22:36:46.201Z,57.32
2023-04-25T22:39:15.042Z,57.69
2023-04-25T22:41:41.905Z,57.89
2023-04-25T22:44:08.218Z,57.52
2023-04-25T22:46:34.786Z,57.70
2023-04-25T22:49:01.238Z,58.23
2023-04-25T22:51:27.548Z,58.17
2023-04-25T22:53:53.956Z,58.19
2023-04-25T22:56:20.319Z,58.29
2023-04-25T22:58:46.709Z,58.44
2023-04-25T23:01:13.290Z,57.92
2023-04-25T23:03:40.210Z,58.34
2023-04-25T23:06:06.831Z,58.45
2023-04-25T23:08:33.290Z,58.14
2023-04-25T23:10:59.624Z,58.56
2023-04-25T23:13:26.364Z,58.29
2023-04-25T23:15:53.075Z,58.54
2023-04-25T23:18:19.428Z,58.45
2023-04-25T23:20:46.835Z,58.46
2023-04-25T23:23:13.175Z,58.55
2023-04-25T23:25:42.926Z,58.91
2023-04-25T23:28:09.276Z,58.93
2023-04-25T23:30:35.627Z,58.79
2023-04-25T23:33:02.022Z,58.98
2023-04-25T23:35:28.715Z,58.94
2023-04-25T23:37:55.541Z,58.63
2023-04-25T23:40:22.180Z,58.82
2023-04-25T23:42:48.548Z,59.17
2023-04-25T23:45:16.377Z,58.88
2023-04-25T23:47:43.121Z,59.05
2023-04-25T23:50:10.095Z,58.83
2023-04-25T23:52:36.476Z,59.24
2023-04-25T23:55:05.279Z,58.91
2023-04-25T23:57:32.296Z,59.07
2023-04-25T23:59:58.884Z,59.07
